Time,TemperatureF,DewpointF,PressureIn,WindDirection,WindDirectionDegrees,WindSpeedMPH,WindSpeedGustMPH,Humidity,HourlyPrecipIn,Conditions,Clouds,dailyrainin,SoftwareType,DateUTC
2013-07-01 00:08:00,70.1,50.6,29.95,North,11,3.0,3.0,50,0.00,,,0.00,Wunderground v.1.15,2013-07-01 06:08:00,
2013-07-01 00:13:00,70.0,51.0,29.96,ESE,117,4.0,4.0,51,0.00,,,0.00,Wunderground v.1.15,2013-07-01 06:13:00,
2013-07-01 00:23:00,69.8,50.3,29.96,NNE,22,6.0,6.0,50,0.00,,,0.00,Wunderground v.1.15,2013-07-01 06:23:00,
2013-07-01 00:33:00,69.7,50.2,29.96,NNW,333,8.0,8.0,50,0.00,,,0.00,Wunderground v.1.15,2013-07-01 06:33:00,
2013-07-01 00:38:00,69.9,49.9,29.97,NNE,29,7.0,7.0,49,0.00,,,0.00,Wunderground v.1.15,2013-07-01 06:38:00,
2013-07-01 00:48:00,70.4,49.8,29.98,SE,135,3.0,3.0,48,0.00,,,0.00,Wunderground v.1.15,2013-07-01 06:48:00,
2013-07-01 00:58:00,69.4,52.5,29.98,North,3,3.0,3.0,55,0.00,,,0.00,Wunderground v.1.15,2013-07-01 06:58:00,
2013-07-01 01:08:00,67.0,52.7,29.93,NE,51,2.0,4.0,60,0.07,,,0.02,Wunderground v.1.15,2013-07-01 07:08:00,
2013-07-01 01:18:00,66.0,54.3,29.95,SE,129,2.0,2.0,66,0.06,,,0.02,Wunderground v.1.15,2013-07-01 07:18:00,
2013-07-01 01:23:00,65.6,53.9,29.94,SW,225,2.0,2.0,66,0.04,,,0.02,Wunderground v.1.15,2013-07-01 07:23:00,
2013-07-01 01:33:00,65.1,53.9,29.94,South,186,2.0,4.0,67,0.00,,,0.02,Wunderground v.1.15,2013-07-01 07:33:00,
2013-07-01 01:43:00,65.5,54.7,29.93,SSE,153,3.0,3.0,68,0.00,,,0.02,Wunderground v.1.15,2013-07-01 07:43:00,
2013-07-01 01:53:00,65.7,52.8,29.92,SSE,158,5.0,6.0,63,0.00,,,0.02,Wunderground v.1.15,2013-07-01 07:53:00,
2013-07-01 01:58:00,65.9,52.5,29.92,SE,145,5.0,5.0,62,0.00,,,0.02,Wunderground v.1.15,2013-07-01 07:58:00,
2013-07-01 02:08:00,66.2,54.1,29.94,NNW,328,3.0,3.0,65,0.00,,,0.02,Wunderground v.1.15,2013-07-01 08:08:00,
2013-07-01 02:18:00,65.7,54.4,29.94,North,8,2.0,2.0,67,0.00,,,0.02,Wunderground v.1.15,2013-07-01 08:18:00,
2013-07-01 02:28:00,65.3,54.5,29.94,SE,143,0.0,0.0,68,0.00,,,0.02,Wunderground v.1.15,2013-07-01 08:28:00,
2013-07-01 02:33:00,64.9,54.5,29.94,NE,36,0.0,1.0,69,0.00,,,0.02,Wunderground v.1.15,2013-07-01 08:33:00,
2013-07-01 02:43:00,64.8,55.2,29.94,NE,34,1.0,2.0,71,0.00,,,0.02,Wunderground v.1.15,2013-07-01 08:43:00,
2013-07-01 02:48:00,64.7,55.1,29.94,North,359,1.0,2.0,71,0.00,,,0.02,Wunderground v.1.15,2013-07-01 08:48:00,
2013-07-01 02:53:00,64.5,54.9,29.94,North,352,1.0,2.0,71,0.00,,,0.02,Wunderground v.1.15,2013-07-01 08:53:00,
2013-07-01 02:58:00,64.3,55.1,29.94,North,352,0.0,0.0,72,0.00,,,0.02,Wunderground v.1.15,2013-07-01 08:58:00,
2013-07-01 03:08:00,63.8,55.0,29.94,SE,134,0.0,0.0,73,0.00,,,0.02,Wunderground v.1.15,2013-07-01 09:08:00,
2013-07-01 03:13:00,63.6,55.2,29.95,NE,48,0.0,0.0,74,0.00,,,0.02,Wunderground v.1.15,2013-07-01 09:13:00,
2013-07-01 03:23:00,63.9,54.7,29.95,NE,55,1.0,1.0,72,0.00,,,0.02,Wunderground v.1.15,2013-07-01 09:23:00,
2013-07-01 03:33:00,63.8,54.6,29.96,NE,49,0.0,0.0,72,0.00,,,0.02,Wunderground v.1.15,2013-07-01 09:33:00,
2013-07-01 03:38:00,63.8,54.6,29.97,NNE,22,0.0,3.0,72,0.00,,,0.02,Wunderground v.1.15,2013-07-01 09:38:00,
2013-07-01 03:48:00,64.1,54.5,29.97,NNW,345,3.0,3.0,71,0.00,,,0.02,Wunderground v.1.15,2013-07-01 09:48:00,
2013-07-01 03:53:00,64.0,54.4,29.97,ENE,64,1.0,3.0,71,0.00,,,0.02,Wunderground v.1.15,2013-07-01 09:53:00,
2013-07-01 03:58:00,63.8,55.0,29.97,ENE,73,1.0,1.0,73,0.00,,,0.02,Wunderground v.1.15,2013-07-01 09:58:00,
2013-07-01 04:08:00,63.7,54.5,29.97,NNE,25,3.0,3.0,72,0.00,,,0.02,Wunderground v.1.15,2013-07-01 10:08:00,
2013-07-01 04:18:00,63.7,54.5,29.97,NNW,346,3.0,3.0,72,0.00,,,0.02,Wunderground v.1.15,2013-07-01 10:18:00,
2013-07-01 04:23:00,63.6,54.4,29.98,NNE,15,2.0,3.0,72,0.00,,,0.02,Wunderground v.1.15,2013-07-01 10:23:00,
2013-07-01 04:33:00,63.6,54.4,29.98,NNE,23,1.0,1.0,72,0.00,,,0.02,Wunderground v.1.15,2013-07-01 10:33:00,
2013-07-01 04:38:00,63.5,54.3,29.98,North,355,1.0,1.0,72,0.00,,,0.02,Wunderground v.1.15,2013-07-01 10:38:00,
2013-07-01 04:48:00,63.4,54.2,29.98,NNW,342,0.0,0.0,72,0.00,,,0.02,Wunderground v.1.15,2013-07-01 10:48:00,
2013-07-01 04:53:00,63.2,54.4,29.98,North,356,0.0,1.0,73,0.00,,,0.02,Wunderground v.1.15,2013-07-01 10:53:00,
2013-07-01 04:58:00,63.1,54.3,29.98,North,356,0.0,0.0,73,0.00,,,0.02,Wunderground v.1.15,2013-07-01 10:58:00,
2013-07-01 05:08:00,62.7,54.3,29.98,NW,323,0.0,0.0,74,0.00,,,0.02,Wunderground v.1.15,2013-07-01 11:08:00,
2013-07-01 05:13:00,62.4,54.4,29.99,SE,131,0.0,0.0,75,0.00,,,0.02,Wunderground v.1.15,2013-07-01 11:13:00,
2013-07-01 05:18:00,62.2,54.2,29.99,SE,136,0.0,0.0,75,0.00,,,0.02,Wunderground v.1.15,2013-07-01 11:18:00,
2013-07-01 05:28:00,61.7,54.1,29.99,SSW,198,0.0,0.0,76,0.00,,,0.02,Wunderground v.1.15,2013-07-01 11:28:00,
2013-07-01 05:38:00,61.4,54.5,29.99,SE,140,1.0,2.0,78,0.00,,,0.02,Wunderground v.1.15,2013-07-01 11:38:00,
2013-07-01 05:43:00,61.5,54.6,30.00,South,190,1.0,2.0,78,0.00,,,0.02,Wunderground v.1.15,2013-07-01 11:43:00,
2013-07-01 05:53:00,61.5,54.6,30.00,NNE,27,1.0,1.0,78,0.00,,,0.02,Wunderground v.1.15,2013-07-01 11:53:00,
2013-07-01 05:58:00,61.4,54.5,30.00,WSW,248,1.0,1.0,78,0.00,,,0.02,Wunderground v.1.15,2013-07-01 11:58:00,
2013-07-01 06:08:00,61.4,54.5,30.00,NNW,342,0.0,0.0,78,0.00,,,0.02,Wunderground v.1.15,2013-07-01 12:08:00,
2013-07-01 06:13:00,61.1,54.2,30.00,NNW,342,0.0,0.0,78,0.00,,,0.02,Wunderground v.1.15,2013-07-01 12:13:00,
2013-07-01 06:23:00,60.9,54.7,30.00,NW,321,0.0,0.0,80,0.00,,,0.02,Wunderground v.1.15,2013-07-01 12:23:00,
2013-07-01 06:28:00,61.0,54.8,30.00,NW,321,0.0,0.0,80,0.00,,,0.02,Wunderground v.1.15,2013-07-01 12:28:00,
2013-07-01 06:33:00,61.1,54.5,30.00,NNW,339,0.0,2.0,79,0.00,,,0.02,Wunderground v.1.15,2013-07-01 12:33:00,
2013-07-01 06:43:00,61.8,54.9,30.01,NNE,27,1.0,1.0,78,0.00,,,0.02,Wunderground v.1.15,2013-07-01 12:43:00,
2013-07-01 06:53:00,62.3,55.0,30.01,NNW,335,1.0,2.0,77,0.00,,,0.02,Wunderground v.1.15,2013-07-01 12:53:00,
2013-07-01 06:58:00,62.4,55.1,30.01,NNW,339,1.0,1.0,77,0.00,,,0.02,Wunderground v.1.15,2013-07-01 12:58:00,
2013-07-01 07:08:00,62.8,55.1,30.01,NNE,21,1.0,2.0,76,0.00,,,0.02,Wunderground v.1.15,2013-07-01 13:08:00,
2013-07-01 07:13:00,63.0,54.9,30.02,NW,323,2.0,2.0,75,0.00,,,0.02,Wunderground v.1.15,2013-07-01 13:13:00,
2013-07-01 07:18:00,63.1,55.4,30.02,NNW,346,2.0,2.0,76,0.00,,,0.02,Wunderground v.1.15,2013-07-01 13:18:00,
2013-07-01 07:23:00,63.4,54.6,30.02,NW,319,2.0,2.0,73,0.00,,,0.02,Wunderground v.1.15,2013-07-01 13:23:00,
2013-07-01 07:33:00,63.8,55.0,30.02,North,4,2.0,2.0,73,0.00,,,0.02,Wunderground v.1.15,2013-07-01 13:33:00,
2013-07-01 07:43:00,64.2,55.0,30.02,North,359,2.0,2.0,72,0.00,,,0.02,Wunderground v.1.15,2013-07-01 13:43:00,
2013-07-01 07:53:00,64.9,54.5,30.02,NNW,330,2.0,2.0,69,0.00,,,0.02,Wunderground v.1.15,2013-07-01 13:53:00,
2013-07-01 07:58:00,65.4,55.0,30.03,NNW,338,2.0,2.0,69,0.00,,,0.02,Wunderground v.1.15,2013-07-01 13:58:00,
2013-07-01 08:08:00,65.6,54.8,30.02,North,5,2.0,2.0,68,0.00,,,0.02,Wunderground v.1.15,2013-07-01 14:08:00,
2013-07-01 08:18:00,65.9,54.2,30.03,North,356,2.0,2.0,66,0.00,,,0.02,Wunderground v.1.15,2013-07-01 14:18:00,
2013-07-01 08:28:00,66.3,53.8,30.02,NNE,21,2.0,2.0,64,0.00,,,0.02,Wunderground v.1.15,2013-07-01 14:28:00,
2013-07-01 08:38:00,66.9,53.5,30.03,North,8,1.0,2.0,62,0.00,,,0.02,Wunderground v.1.15,2013-07-01 14:38:00,
2013-07-01 08:43:00,67.1,53.6,30.03,NNW,346,2.0,2.0,62,0.00,,,0.02,Wunderground v.1.15,2013-07-01 14:43:00,
2013-07-01 08:53:00,67.6,54.1,30.03,NE,56,1.0,2.0,62,0.00,,,0.02,Wunderground v.1.15,2013-07-01 14:53:00,
2013-07-01 08:58:00,67.9,53.5,30.03,WNW,284,0.0,0.0,60,0.00,,,0.02,Wunderground v.1.15,2013-07-01 14:58:00,
2013-07-01 09:08:00,68.1,53.2,30.03,NNW,342,1.0,1.0,59,0.00,,,0.02,Wunderground v.1.15,2013-07-01 15:08:00,
2013-07-01 09:18:00,68.7,53.3,30.03,WNW,302,1.0,1.0,58,0.00,,,0.02,Wunderground v.1.15,2013-07-01 15:18:00,
2013-07-01 09:23:00,69.0,53.1,30.03,SW,228,1.0,1.0,57,0.00,,,0.02,Wunderground v.1.15,2013-07-01 15:23:00,
2013-07-01 09:28:00,69.5,52.6,30.03,SW,228,1.0,1.0,55,0.00,,,0.02,Wunderground v.1.15,2013-07-01 15:28:00,
2013-07-01 09:38:00,71.2,53.2,30.02,NNE,21,2.0,4.0,53,0.00,,,0.02,Wunderground v.1.15,2013-07-01 15:38:00,
2013-07-01 09:48:00,71.2,52.7,30.02,WSW,250,3.0,3.0,52,0.00,,,0.02,Wunderground v.1.15,2013-07-01 15:48:00,
2013-07-01 09:58:00,72.6,52.9,30.02,North,349,0.0,0.0,50,0.00,,,0.02,Wunderground v.1.15,2013-07-01 15:58:00,
2013-07-01 10:08:00,73.1,52.8,30.01,WSW,257,1.0,3.0,49,0.00,,,0.02,Wunderground v.1.15,2013-07-01 16:08:00,
2013-07-01 10:18:00,72.9,52.1,30.01,NNW,343,2.0,2.0,48,0.00,,,0.02,Wunderground v.1.15,2013-07-01 16:18:00,
2013-07-01 10:23:00,73.1,52.8,30.01,NW,316,2.0,2.0,49,0.00,,,0.02,Wunderground v.1.15,2013-07-01 16:23:00,
2013-07-01 10:33:00,74.0,52.5,30.01,ESE,110,1.0,2.0,47,0.00,,,0.02,Wunderground v.1.15,2013-07-01 16:33:00,
2013-07-01 10:43:00,74.4,52.3,30.00,SSE,152,2.0,6.0,46,0.00,,,0.02,Wunderground v.1.15,2013-07-01 16:43:00,
2013-07-01 10:48:00,74.6,52.4,30.00,ESE,115,2.0,2.0,46,0.00,,,0.02,Wunderground v.1.15,2013-07-01 16:48:00,
2013-07-01 10:58:00,75.5,52.1,30.00,NW,310,1.0,2.0,44,0.00,,,0.02,Wunderground v.1.15,2013-07-01 16:58:00,
2013-07-01 11:08:00,76.9,52.1,30.00,WSW,249,1.0,6.0,42,0.00,,,0.02,Wunderground v.1.15,2013-07-01 17:08:00,
2013-07-01 11:18:00,76.4,51.0,30.00,WSW,255,2.0,2.0,41,0.00,,,0.02,Wunderground v.1.15,2013-07-01 17:18:00,
2013-07-01 11:23:00,76.3,51.5,30.00,West,274,2.0,3.0,42,0.00,,,0.02,Wunderground v.1.15,2013-07-01 17:23:00,
2013-07-01 11:33:00,76.2,52.1,29.99,NW,323,3.0,7.0,43,0.00,,,0.02,Wunderground v.1.15,2013-07-01 17:33:00,
2013-07-01 11:38:00,77.0,51.5,29.99,NNW,340,3.0,3.0,41,0.00,,,0.02,Wunderground v.1.15,2013-07-01 17:38:00,
2013-07-01 11:43:00,77.5,51.9,29.98,West,273,2.0,4.0,41,0.00,,,0.02,Wunderground v.1.15,2013-07-01 17:43:00,
2013-07-01 11:48:00,77.2,50.3,29.98,NW,315,3.0,3.0,39,0.00,,,0.02,Wunderground v.1.15,2013-07-01 17:48:00,
2013-07-01 11:58:00,78.8,51.7,29.98,WNW,303,2.0,3.0,39,0.00,,,0.02,Wunderground v.1.15,2013-07-01 17:58:00,
2013-07-01 12:08:00,78.7,51.7,29.98,NNW,328,3.0,3.0,39,0.00,,,0.02,Wunderground v.1.15,2013-07-01 18:08:00,
2013-07-01 12:18:00,79.1,51.3,29.97,SSW,210,2.0,2.0,38,0.00,,,0.02,Wunderground v.1.15,2013-07-01 18:18:00,
2013-07-01 12:28:00,79.8,51.2,29.97,WSW,246,2.0,2.0,37,0.00,,,0.02,Wunderground v.1.15,2013-07-01 18:28:00,
2013-07-01 12:33:00,81.0,51.5,29.97,NW,322,1.0,4.0,36,0.00,,,0.02,Wunderground v.1.15,2013-07-01 18:33:00,
2013-07-01 12:43:00,80.5,50.3,29.96,WNW,287,3.0,5.0,35,0.00,,,0.02,Wunderground v.1.15,2013-07-01 18:43:00,
2013-07-01 12:48:00,80.5,51.1,29.96,North,359,3.0,5.0,36,0.00,,,0.02,Wunderground v.1.15,2013-07-01 18:48:00,
2013-07-01 12:53:00,80.5,51.8,29.96,SW,221,3.0,5.0,37,0.00,,,0.02,Wunderground v.1.15,2013-07-01 18:53:00,
2013-07-01 12:58:00,81.2,51.7,29.95,SW,217,3.0,3.0,36,0.00,,,0.02,Wunderground v.1.15,2013-07-01 18:58:00,
2013-07-01 13:08:00,81.9,51.6,29.95,SE,135,2.0,3.0,35,0.00,,,0.02,Wunderground v.1.15,2013-07-01 19:08:00,
2013-07-01 13:18:00,83.3,52.0,29.94,WNW,288,2.0,6.0,34,0.00,,,0.02,Wunderground v.1.15,2013-07-01 19:18:00,
2013-07-01 13:23:00,83.1,51.0,29.94,SSW,210,3.0,6.0,33,0.00,,,0.02,Wunderground v.1.15,2013-07-01 19:23:00,
2013-07-01 13:33:00,83.5,52.2,29.93,WNW,302,3.0,4.0,34,0.00,,,0.02,Wunderground v.1.15,2013-07-01 19:33:00,
2013-07-01 13:43:00,83.8,50.8,29.93,West,263,2.0,3.0,32,0.00,,,0.02,Wunderground v.1.15,2013-07-01 19:43:00,
2013-07-01 13:53:00,83.4,50.4,29.92,East,90,3.0,3.0,32,0.00,,,0.02,Wunderground v.1.15,2013-07-01 19:53:00,
2013-07-01 13:58:00,85.2,50.3,29.92,NE,46,1.0,1.0,30,0.00,,,0.02,Wunderground v.1.15,2013-07-01 19:58:00,
2013-07-01 14:08:00,84.8,50.8,29.92,SSE,159,4.0,4.0,31,0.00,,,0.02,Wunderground v.1.15,2013-07-01 20:08:00,
2013-07-01 14:13:00,85.2,50.3,29.92,West,266,4.0,5.0,30,0.00,,,0.02,Wunderground v.1.15,2013-07-01 20:13:00,
2013-07-01 14:23:00,85.3,50.4,29.92,South,181,2.0,3.0,30,0.00,,,0.02,Wunderground v.1.15,2013-07-01 20:23:00,
2013-07-01 14:33:00,85.4,50.4,29.91,NW,309,3.0,3.0,30,0.00,,,0.02,Wunderground v.1.15,2013-07-01 20:33:00,
2013-07-01 14:38:00,84.8,50.8,29.91,SSE,167,3.0,3.0,31,0.00,,,0.02,Wunderground v.1.15,2013-07-01 20:38:00,
2013-07-01 14:48:00,85.6,49.7,29.91,SSW,195,2.0,12.0,29,0.00,,,0.02,Wunderground v.1.15,2013-07-01 20:48:00,
2013-07-01 14:53:00,85.2,50.3,29.90,SE,145,5.0,12.0,30,0.00,,,0.02,Wunderground v.1.15,2013-07-01 20:53:00,
2013-07-01 14:58:00,85.3,50.4,29.90,ESE,118,3.0,4.0,30,0.00,,,0.02,Wunderground v.1.15,2013-07-01 20:58:00,
2013-07-01 15:08:00,85.4,50.4,29.90,WNW,291,2.0,2.0,30,0.00,,,0.02,Wunderground v.1.15,2013-07-01 21:08:00,
2013-07-01 15:13:00,85.6,49.7,29.89,WNW,295,3.0,3.0,29,0.00,,,0.02,Wunderground v.1.15,2013-07-01 21:13:00,
2013-07-01 15:23:00,85.9,50.0,29.89,West,281,4.0,5.0,29,0.00,,,0.02,Wunderground v.1.15,2013-07-01 21:23:00,
2013-07-01 15:28:00,86.1,49.2,29.89,NW,305,4.0,4.0,28,0.00,,,0.02,Wunderground v.1.15,2013-07-01 21:28:00,
2013-07-01 15:38:00,85.6,49.7,29.89,SSE,152,3.0,3.0,29,0.00,,,0.02,Wunderground v.1.15,2013-07-01 21:38:00,
2013-07-01 15:48:00,87.0,49.0,29.88,North,351,3.0,4.0,27,0.00,,,0.02,Wunderground v.1.15,2013-07-01 21:48:00,
2013-07-01 15:53:00,86.8,48.8,29.87,SW,224,3.0,4.0,27,0.00,,,0.02,Wunderground v.1.15,2013-07-01 21:53:00,
2013-07-01 15:58:00,87.0,49.0,29.87,NNW,328,2.0,4.0,27,0.00,,,0.02,Wunderground v.1.15,2013-07-01 21:58:00,
2013-07-01 16:08:00,87.5,48.4,29.87,West,276,3.0,3.0,26,0.00,,,0.02,Wunderground v.1.15,2013-07-01 22:08:00,
2013-07-01 16:18:00,87.9,47.7,29.87,East,91,2.0,2.0,25,0.00,,,0.02,Wunderground v.1.15,2013-07-01 22:18:00,
2013-07-01 16:28:00,83.6,48.9,29.87,SSE,159,5.0,5.0,30,0.00,,,0.02,Wunderground v.1.15,2013-07-01 22:28:00,
2013-07-01 16:33:00,82.3,47.8,29.88,East,86,6.0,6.0,30,0.00,,,0.02,Wunderground v.1.15,2013-07-01 22:33:00,
2013-07-01 16:43:00,78.2,52.6,29.86,SE,139,9.0,12.0,41,0.00,,,0.02,Wunderground v.1.15,2013-07-01 22:43:00,
2013-07-01 16:53:00,76.1,53.8,29.87,ENE,73,9.0,10.0,46,0.00,,,0.03,Wunderground v.1.15,2013-07-01 22:53:00,
2013-07-01 16:58:00,76.6,53.1,29.87,East,101,9.0,9.0,44,0.00,,,0.03,Wunderground v.1.15,2013-07-01 22:58:00,
2013-07-01 17:08:00,78.4,50.7,29.88,SE,143,9.0,9.0,38,0.00,,,0.03,Wunderground v.1.15,2013-07-01 23:08:00,
2013-07-01 17:13:00,79.4,51.6,29.88,SSE,148,8.0,9.0,38,0.00,,,0.03,Wunderground v.1.15,2013-07-01 23:13:00,
2013-07-01 17:23:00,80.2,50.1,29.89,SE,138,8.0,10.0,35,0.00,,,0.03,Wunderground v.1.15,2013-07-01 23:23:00,
2013-07-01 17:33:00,79.1,49.1,29.89,East,96,9.0,14.0,35,0.00,,,0.03,Wunderground v.1.15,2013-07-01 23:33:00,
2013-07-01 17:43:00,78.3,48.4,29.89,ESE,107,10.0,11.0,35,0.00,,,0.03,Wunderground v.1.15,2013-07-01 23:43:00,
2013-07-01 17:53:00,77.7,46.3,29.89,East,84,9.0,14.0,33,0.00,,,0.03,Wunderground v.1.15,2013-07-01 23:53:00,
2013-07-01 17:58:00,77.5,46.1,29.89,ESE,105,9.0,14.0,33,0.00,,,0.03,Wunderground v.1.15,2013-07-01 23:58:00,
2013-07-01 18:08:00,77.8,44.7,29.89,SE,125,10.0,10.0,31,0.00,,,0.03,Wunderground v.1.15,2013-07-02 00:08:00,
2013-07-01 18:13:00,78.5,44.5,29.89,SE,127,9.0,10.0,30,0.00,,,0.03,Wunderground v.1.15,2013-07-02 00:13:00,
2013-07-01 18:23:00,79.9,42.9,29.89,ENE,65,9.0,9.0,27,0.00,,,0.03,Wunderground v.1.15,2013-07-02 00:23:00,
2013-07-01 18:28:00,79.9,42.9,29.90,ESE,111,7.0,12.0,27,0.00,,,0.03,Wunderground v.1.15,2013-07-02 00:28:00,
2013-07-01 18:33:00,80.0,44.0,29.89,ENE,72,7.0,12.0,28,0.00,,,0.03,Wunderground v.1.15,2013-07-02 00:33:00,
2013-07-01 18:43:00,79.2,46.8,29.90,SSW,196,5.0,7.0,32,0.00,,,0.03,Wunderground v.1.15,2013-07-02 00:43:00,
2013-07-01 18:53:00,78.8,48.1,29.91,SE,139,3.0,4.0,34,0.00,,,0.03,Wunderground v.1.15,2013-07-02 00:53:00,
2013-07-01 18:58:00,78.7,47.2,29.91,ENE,58,2.0,3.0,33,0.00,,,0.03,Wunderground v.1.15,2013-07-02 00:58:00,
2013-07-01 19:08:00,78.2,45.1,29.91,ESE,113,5.0,5.0,31,0.00,,,0.03,Wunderground v.1.15,2013-07-02 01:08:00,
2013-07-01 19:18:00,77.7,45.5,29.92,ESE,113,4.0,4.0,32,0.00,,,0.03,Wunderground v.1.15,2013-07-02 01:18:00,
2013-07-01 19:23:00,77.2,46.7,29.92,East,101,6.0,6.0,34,0.00,,,0.03,Wunderground v.1.15,2013-07-02 01:23:00,
2013-07-01 19:33:00,76.9,47.2,29.94,NNE,31,3.0,6.0,35,0.00,,,0.03,Wunderground v.1.15,2013-07-02 01:33:00,
2013-07-01 19:38:00,76.7,49.2,29.94,East,96,3.0,6.0,38,0.00,,,0.03,Wunderground v.1.15,2013-07-02 01:38:00,
2013-07-01 19:48:00,75.3,51.3,29.93,East,79,7.0,7.0,43,0.00,,,0.03,Wunderground v.1.15,2013-07-02 01:48:00,
2013-07-01 19:58:00,74.6,51.2,29.93,ESE,123,8.0,16.0,44,0.00,,,0.03,Wunderground v.1.15,2013-07-02 01:58:00,
2013-07-01 20:08:00,74.0,51.3,29.92,ESE,118,7.0,8.0,45,0.00,,,0.03,Wunderground v.1.15,2013-07-02 02:08:00,
2013-07-01 20:18:00,73.8,50.5,29.93,SE,127,9.0,9.0,44,0.00,,,0.03,Wunderground v.1.15,2013-07-02 02:18:00,
2013-07-01 20:23:00,74.0,48.8,29.93,NW,309,6.0,9.0,41,0.00,,,0.03,Wunderground v.1.15,2013-07-02 02:23:00,
2013-07-01 20:33:00,73.9,48.1,29.93,ENE,61,4.0,4.0,40,0.00,,,0.03,Wunderground v.1.15,2013-07-02 02:33:00,
2013-07-01 20:38:00,74.1,48.2,29.93,ENE,65,4.0,4.0,40,0.00,,,0.03,Wunderground v.1.15,2013-07-02 02:38:00,
2013-07-01 20:48:00,74.1,46.9,29.94,SE,129,3.0,3.0,38,0.00,,,0.03,Wunderground v.1.15,2013-07-02 02:48:00,
2013-07-01 20:58:00,74.2,46.2,29.94,ENE,65,3.0,3.0,37,0.00,,,0.03,Wunderground v.1.15,2013-07-02 02:58:00,
2013-07-01 21:08:00,74.0,46.1,29.95,ESE,118,1.0,1.0,37,0.00,,,0.03,Wunderground v.1.15,2013-07-02 03:08:00,
2013-07-01 21:13:00,74.0,46.1,29.96,East,84,1.0,6.0,37,0.00,,,0.03,Wunderground v.1.15,2013-07-02 03:13:00,
2013-07-01 21:23:00,74.1,46.2,29.96,ENE,63,2.0,3.0,37,0.00,,,0.03,Wunderground v.1.15,2013-07-02 03:23:00,
2013-07-01 21:33:00,74.1,46.2,29.97,ENE,75,5.0,5.0,37,0.00,,,0.03,Wunderground v.1.15,2013-07-02 03:33:00,
2013-07-01 21:40:00,73.6,46.4,29.97,East,82,6.0,12.0,38,0.00,,,0.03,Wunderground v.1.15,2013-07-02 03:40:00,
2013-07-01 21:45:00,73.3,46.8,29.98,ENE,78,5.0,12.0,39,0.00,,,0.03,Wunderground v.1.15,2013-07-02 03:45:00,
2013-07-01 21:50:00,73.3,46.2,29.98,East,91,4.0,5.0,38,0.00,,,0.03,Wunderground v.1.15,2013-07-02 03:50:00,
2013-07-01 22:00:00,72.7,47.0,29.98,SE,141,5.0,9.0,40,0.00,,,0.03,Wunderground v.1.15,2013-07-02 04:00:00,
2013-07-01 22:05:00,72.5,46.8,29.99,East,87,5.0,9.0,40,0.00,,,0.03,Wunderground v.1.15,2013-07-02 04:05:00,
2013-07-01 22:10:00,71.8,46.8,29.99,SE,139,5.0,5.0,41,0.00,,,0.03,Wunderground v.1.15,2013-07-02 04:10:00,
2013-07-01 22:15:00,71.5,47.2,29.99,East,82,5.0,5.0,42,0.00,,,0.03,Wunderground v.1.15,2013-07-02 04:15:00,
2013-07-01 22:25:00,71.0,46.7,30.00,SE,129,6.0,8.0,42,0.00,,,0.03,Wunderground v.1.15,2013-07-02 04:25:00,
2013-07-01 22:30:00,70.9,46.7,30.00,East,79,6.0,6.0,42,0.00,,,0.03,Wunderground v.1.15,2013-07-02 04:30:00,
2013-07-01 22:35:00,70.8,45.3,30.00,ESE,116,4.0,14.0,40,0.00,,,0.03,Wunderground v.1.15,2013-07-02 04:35:00,
2013-07-01 22:45:00,71.0,44.8,30.00,ENE,64,7.0,11.0,39,0.00,,,0.03,Wunderground v.1.15,2013-07-02 04:45:00,
2013-07-01 22:50:00,71.0,44.8,30.01,East,79,3.0,3.0,39,0.00,,,0.03,Wunderground v.1.15,2013-07-02 04:50:00,
2013-07-01 22:55:00,71.1,45.5,30.01,ENE,72,2.0,3.0,40,0.00,,,0.03,Wunderground v.1.15,2013-07-02 04:55:00,
2013-07-01 23:00:00,71.6,45.3,30.01,ESE,121,2.0,7.0,39,0.00,,,0.03,Wunderground v.1.15,2013-07-02 05:00:00,
2013-07-01 23:05:00,71.4,44.5,30.01,East,89,4.0,7.0,38,0.00,,,0.03,Wunderground v.1.15,2013-07-02 05:05:00,
2013-07-01 23:15:00,71.2,45.0,30.01,West,259,3.0,4.0,39,0.00,,,0.03,Wunderground v.1.15,2013-07-02 05:15:00,
2013-07-01 23:20:00,71.1,44.2,30.01,East,91,4.0,4.0,38,0.00,,,0.03,Wunderground v.1.15,2013-07-02 05:20:00,
2013-07-01 23:30:00,70.9,44.0,30.02,ESE,104,3.0,3.0,38,0.00,,,0.03,Wunderground v.1.15,2013-07-02 05:30:00,
2013-07-01 23:40:00,70.8,43.9,30.03,ENE,77,2.0,2.0,38,0.00,,,0.03,Wunderground v.1.15,2013-07-02 05:40:00,
2013-07-01 23:50:00,70.8,44.6,30.02,NW,306,2.0,2.0,39,0.00,,,0.03,Wunderground v.1.15,2013-07-02 05:50:00,